Time;durP1;ratioP1;P1;durP2;ratioP2;P2;SDS_P1;SDS_P2;PMS_P1;PMS_P2;Temp;Humidity;BMP_temperature;BMP_pressure;BME280_temperature;BME280_humidity;BME280_pressure;Samples;Min_cycle;Max_cycle;Signal;HPM_P1;HPM_P2
2021/12/21 00:01:11;;;;;;;;;;;;;;;-1.68;78.79;102039.72;4929856;28;19961;-75
2021/12/21 00:03:36;;;;;;;;;;;;;;;-1.69;79.48;102042.34;4903207;28;19976;-78
2021/12/21 00:06:02;;;;;;;;;;;;;;;-1.71;79.39;102037.19;4892404;28;19961;-77
2021/12/21 00:08:27;;;;;;;;;;;;;;;-1.71;79.13;102034.56;4916959;28;20252;-76
2021/12/21 00:10:52;;;;;;;;;;;;;;;-1.70;79.09;102033.69;4934147;28;20718;-76
2021/12/21 00:21:31;;;;;;;;;;;;;;;-1.82;79.60;102032.19;4941701;27;20154;-75
2021/12/21 00:24:01;;;;;;;;;;;;;;;-1.93;79.61;102034.94;4942692;27;20269;-78
2021/12/21 00:26:26;;;;;;;;;;;;;;;-1.90;80.31;102029.69;4939139;27;20020;-76
2021/12/21 00:31:17;;;;;;;;;;;;;;;-1.82;80.04;102034.78;4937171;27;20067;-78
2021/12/21 00:33:45;;;;;;;;;;;;;;;-1.79;80.23;102031.25;4938272;27;19900;-78
2021/12/21 00:36:11;;;;;;;;;;;;;;;-1.78;79.90;102030.38;4916862;28;19980;-78
2021/12/21 00:38:36;;;;;;;;;;;;;;;-1.81;79.45;102031.28;4906902;28;20401;-77
2021/12/21 00:41:01;;;;;;;;;;;;;;;-1.77;79.21;102025.16;4905830;28;19904;-78
2021/12/21 00:43:27;;;;;;;;;;;;;;;-1.73;78.66;102032.00;4896054;27;20847;-76
2021/12/21 00:45:52;;;;;;;;;;;;;;;-1.80;78.71;102034.75;4933293;27;20470;-77
2021/12/21 00:48:17;;;;;;;;;;;;;;;-1.91;79.25;102029.72;4952424;27;19927;-77
2021/12/21 00:50:43;;;;;;;;;;;;;;;-1.96;79.93;102023.75;4932416;27;21214;-77
2021/12/21 00:53:08;;;;;;;;;;;;;;;-1.99;79.98;102029.00;4954520;27;19911;-77
2021/12/21 00:55:33;;;;;;;;;;;;;;;-2.02;80.36;102023.84;4952813;27;20103;-75
2021/12/21 00:57:59;;;;;;;;;;;;;;;-2.03;80.16;102029.91;4930535;27;20652;-77
2021/12/21 01:00:24;;;;;;;;;;;;;;;-2.12;80.69;102018.78;4951071;27;20837;-77
2021/12/21 01:02:49;;;;;;;;;;;;;;;-2.11;80.81;102017.09;4929519;27;20100;-76
2021/12/21 01:05:25;;;;;;;;;;;;;;;-2.08;80.24;102019.63;4926355;27;20085;-75
2021/12/21 01:07:53;;;;;;;;;;;;;;;-2.08;80.13;102014.44;4932866;27;20310;-76
2021/12/21 01:16:03;;;;;;;;;;;;;;;-2.18;80.96;102018.06;4934726;27;19936;-75
2021/12/21 01:18:52;;;;;;;;;;;;;;;-2.10;80.83;102016.19;4918561;28;20116;-76
2021/12/21 01:21:21;;;;;;;;;;;;;;;-2.08;80.48;102012.69;4917747;27;20058;-76
2021/12/21 01:32:00;;;;;;;;;;;;;;;-2.23;80.73;102010.31;4924977;28;20332;-77
2021/12/21 01:34:39;;;;;;;;;;;;;;;-2.22;80.55;102012.03;4927340;28;19904;-76
2021/12/21 01:37:14;;;;;;;;;;;;;;;-2.28;81.00;102012.16;4922843;27;19923;-76
2021/12/21 01:39:54;;;;;;;;;;;;;;;-2.26;80.98;102003.47;4908284;28;20881;-76
2021/12/21 01:42:38;;;;;;;;;;;;;;;-2.32;81.04;102000.13;4906264;27;19915;-77
2021/12/21 01:50:32;;;;;;;;;;;;;;;-2.34;80.74;102002.72;4927359;28;20466;-78
2021/12/21 01:52:58;;;;;;;;;;;;;;;-2.35;80.96;102001.00;4890688;28;19908;-78
2021/12/21 01:55:23;;;;;;;;;;;;;;;-2.35;80.97;102006.19;4922081;28;19912;-78
2021/12/21 01:57:48;;;;;;;;;;;;;;;-2.43;81.05;102008.88;4927559;28;19912;-77
2021/12/21 02:00:14;;;;;;;;;;;;;;;-2.48;81.12;102002.94;4905675;28;19904;-77
2021/12/21 02:02:39;;;;;;;;;;;;;;;-2.55;81.56;102006.50;4906624;28;20886;-78
2021/12/21 02:05:04;;;;;;;;;;;;;;;-2.53;81.42;102002.13;4905994;28;20371;-76
2021/12/21 02:07:30;;;;;;;;;;;;;;;-2.47;81.45;102009.84;4918664;28;20434;-75
2021/12/21 02:09:55;;;;;;;;;;;;;;;-2.45;81.24;101995.09;4917410;28;19915;-76
2021/12/21 02:12:20;;;;;;;;;;;;;;;-2.47;81.05;101998.59;4905161;28;19931;-76
2021/12/21 02:14:54;;;;;;;;;;;;;;;-2.48;81.09;102000.34;4892511;28;19924;-78
2021/12/21 02:20:14;;;;;;;;;;;;;;;-2.52;80.88;102000.41;4911297;28;19973;-76
2021/12/21 02:22:45;;;;;;;;;;;;;;;-2.48;81.05;101992.56;4872758;28;19935;-76
2021/12/21 02:27:56;;;;;;;;;;;;;;;-2.62;80.91;101999.69;4910303;28;19931;-76
2021/12/21 02:30:21;;;;;;;;;;;;;;;-2.65;81.06;101997.97;4898198;28;20001;-76
2021/12/21 02:32:47;;;;;;;;;;;;;;;-2.60;80.79;101990.13;4913295;28;20679;-77
2021/12/21 02:35:12;;;;;;;;;;;;;;;-2.62;81.30;101994.50;4926588;27;20657;-75
2021/12/21 02:37:37;;;;;;;;;;;;;;;-2.69;81.30;101987.66;4955080;27;20501;-76
2021/12/21 02:40:03;;;;;;;;;;;;;;;-2.67;81.47;101975.56;4918623;28;20033;-75
2021/12/21 02:42:28;;;;;;;;;;;;;;;-2.61;81.35;101983.22;4908870;28;19964;-78
2021/12/21 02:44:54;;;;;;;;;;;;;;;-2.63;81.11;101985.00;4911337;28;19989;-77
2021/12/21 02:47:19;;;;;;;;;;;;;;;-2.68;81.28;101998.03;4911453;28;20019;-77
2021/12/21 02:49:44;;;;;;;;;;;;;;;-2.78;81.38;101994.69;4913195;28;20622;-78
2021/12/21 02:52:09;;;;;;;;;;;;;;;-2.76;81.56;101992.94;4924901;28;20371;-77
2021/12/21 02:54:35;;;;;;;;;;;;;;;-2.65;81.36;101997.09;4907365;28;19926;-76
2021/12/21 02:57:00;;;;;;;;;;;;;;;-2.62;81.05;101991.91;4909268;28;20682;-78
2021/12/21 02:59:25;;;;;;;;;;;;;;;-2.65;80.97;101981.56;4924837;28;20009;-78
2021/12/21 03:01:50;;;;;;;;;;;;;;;-2.69;81.17;101987.66;4919194;28;20298;-78
2021/12/21 03:04:16;;;;;;;;;;;;;;;-2.75;81.18;101988.59;4950348;28;19915;-75
2021/12/21 03:09:55;;;;;;;;;;;;;;;-2.73;81.42;101978.25;4931794;28;20658;-76
2021/12/21 03:12:33;;;;;;;;;;;;;;;-2.76;81.17;101985.16;4943013;27;19979;-76
2021/12/21 03:14:58;;;;;;;;;;;;;;;-2.74;81.75;101986.88;4940078;28;20724;-76
2021/12/21 03:17:23;;;;;;;;;;;;;;;-2.77;81.94;101988.63;4943990;28;19915;-77
2021/12/21 03:19:49;;;;;;;;;;;;;;;-2.79;81.75;101984.38;4935096;28;19925;-76
2021/12/21 03:22:14;;;;;;;;;;;;;;;-2.84;81.56;101984.41;4949014;28;20001;-77
2021/12/21 03:24:42;;;;;;;;;;;;;;;-2.85;81.49;101982.72;4934421;28;19914;-78
2021/12/21 03:27:08;;;;;;;;;;;;;;;-2.90;81.51;101975.88;4943261;28;20321;-77
2021/12/21 03:29:33;;;;;;;;;;;;;;;-2.88;80.88;101974.94;4937059;28;20395;-77
2021/12/21 03:31:58;;;;;;;;;;;;;;;-2.94;80.77;101975.03;4952160;28;19908;-77
2021/12/21 03:34:24;;;;;;;;;;;;;;;-2.96;81.12;101974.19;4952517;28;19904;-79
2021/12/21 03:36:49;;;;;;;;;;;;;;;-2.96;81.07;101971.59;4945552;28;20193;-77
2021/12/21 03:39:19;;;;;;;;;;;;;;;-2.91;81.13;101969.81;4945161;28;19976;-76
2021/12/21 03:41:49;;;;;;;;;;;;;;;-2.91;80.64;101974.16;4929667;28;19908;-77
2021/12/21 03:44:15;;;;;;;;;;;;;;;-2.89;80.98;101962.91;4935934;27;20143;-77
2021/12/21 03:46:46;;;;;;;;;;;;;;;-2.97;80.80;101972.50;4937505;27;19908;-77
2021/12/21 03:52:04;;;;;;;;;;;;;;;-3.04;80.55;101970.88;4908106;28;20045;-77
2021/12/21 03:54:29;;;;;;;;;;;;;;;-3.04;80.77;101973.47;4926799;28;19912;-77
2021/12/21 03:56:55;;;;;;;;;;;;;;;-3.02;81.08;101982.03;4920314;28;20386;-77
2021/12/21 03:59:20;;;;;;;;;;;;;;;-3.06;80.82;101968.31;4940162;28;20319;-77
2021/12/21 04:01:45;;;;;;;;;;;;;;;-3.03;81.54;101969.97;4920424;28;19913;-76
2021/12/21 04:04:10;;;;;;;;;;;;;;;-3.05;81.85;101963.97;4929480;28;19904;-76
2021/12/21 04:06:36;;;;;;;;;;;;;;;-3.01;81.46;101974.25;4918642;28;20343;-79
2021/12/21 04:09:02;;;;;;;;;;;;;;;-2.96;81.18;101975.06;4926406;28;20044;-78
2021/12/21 04:11:28;;;;;;;;;;;;;;;-2.89;80.75;101962.91;4930724;28;19915;-76
2021/12/21 04:13:53;;;;;;;;;;;;;;;-2.84;79.73;101970.59;4955146;28;20256;-77
2021/12/21 04:16:18;;;;;;;;;;;;;;;-3.02;80.14;101966.50;4935849;27;20325;-77
2021/12/21 04:18:43;;;;;;;;;;;;;;;-3.03;80.29;101972.56;4944105;27;20232;-75
2021/12/21 04:21:11;;;;;;;;;;;;;;;-3.07;80.33;101969.16;4921365;27;21005;-77
2021/12/21 04:23:37;;;;;;;;;;;;;;;-3.08;79.98;101966.59;4934065;27;19907;-76
2021/12/21 04:26:02;;;;;;;;;;;;;;;-3.12;79.94;101964.06;4926518;28;20349;-76
2021/12/21 04:28:27;;;;;;;;;;;;;;;-3.19;80.14;101964.13;4911594;28;20363;-77
2021/12/21 04:30:52;;;;;;;;;;;;;;;-3.19;80.00;101964.97;4925029;28;20029;-77
2021/12/21 04:33:18;;;;;;;;;;;;;;;-3.15;79.89;101966.66;4928914;28;20272;-76
2021/12/21 04:35:43;;;;;;;;;;;;;;;-3.21;80.83;101966.75;4934000;27;19908;-76
2021/12/21 04:38:20;;;;;;;;;;;;;;;-3.14;80.62;101957.19;4941300;27;20008;-78
2021/12/21 04:40:48;;;;;;;;;;;;;;;-3.13;80.21;101962.34;4915939;28;20120;-77
2021/12/21 04:43:13;;;;;;;;;;;;;;;-3.20;80.01;101958.09;4912756;28;19947;-76
2021/12/21 04:45:38;;;;;;;;;;;;;;;-3.22;80.17;101959.84;4916456;28;20466;-77
2021/12/21 04:48:04;;;;;;;;;;;;;;;-3.22;80.48;101953.81;4936493;27;20143;-77
2021/12/21 04:50:29;;;;;;;;;;;;;;;-3.22;80.36;101953.81;4927835;27;20407;-78
2021/12/21 04:52:54;;;;;;;;;;;;;;;-3.17;80.26;101950.31;4953510;27;20480;-76
2021/12/21 04:55:20;;;;;;;;;;;;;;;-3.25;80.43;101949.53;4940786;27;20153;-76
2021/12/21 04:57:45;;;;;;;;;;;;;;;-3.28;80.24;101940.06;4902671;28;19911;-78
2021/12/21 05:00:11;;;;;;;;;;;;;;;-3.41;80.21;101943.69;4929392;28;19946;-76
2021/12/21 05:02:36;;;;;;;;;;;;;;;-3.40;80.14;101941.94;4908089;28;19904;-79
2021/12/21 05:05:01;;;;;;;;;;;;;;;-3.42;80.38;101941.13;4911884;28;19940;-76
2021/12/21 05:07:30;;;;;;;;;;;;;;;-3.42;80.95;101946.28;4917331;28;20041;-78
2021/12/21 05:09:57;;;;;;;;;;;;;;;-3.37;80.69;101944.50;4922041;28;19916;-77
2021/12/21 05:12:22;;;;;;;;;;;;;;;-3.34;80.47;101952.22;4921005;27;20325;-76
2021/12/21 05:14:48;;;;;;;;;;;;;;;-3.39;80.38;101941.06;4917808;27;20530;-76
2021/12/21 05:17:13;;;;;;;;;;;;;;;-3.43;80.73;101944.56;4920718;27;20076;-78
2021/12/21 05:19:38;;;;;;;;;;;;;;;-3.38;80.10;101947.97;4921576;27;19932;-76
2021/12/21 05:22:04;;;;;;;;;;;;;;;-3.39;80.51;101947.09;4946392;27;19914;-76
2021/12/21 05:24:29;;;;;;;;;;;;;;;-3.49;80.28;101946.34;4927284;27;19976;-76
2021/12/21 05:26:54;;;;;;;;;;;;;;;-3.45;80.32;101940.25;4929567;27;20504;-76
2021/12/21 05:29:20;;;;;;;;;;;;;;;-3.47;80.41;101947.19;4930466;27;20963;-76
2021/12/21 05:31:45;;;;;;;;;;;;;;;-3.42;80.50;101954.06;4952789;27;20754;-76
2021/12/21 05:34:10;;;;;;;;;;;;;;;-3.34;79.99;101949.63;4936801;27;19911;-76
2021/12/21 05:36:36;;;;;;;;;;;;;;;-3.28;78.80;101957.34;4928907;28;19941;-76
2021/12/21 05:39:04;;;;;;;;;;;;;;;-3.26;78.80;101952.13;4945558;27;19979;-75
2021/12/21 05:42:05;;;;;;;;;;;;;;;-3.36;79.00;101956.56;4915044;27;20047;-76
2021/12/21 05:44:22;;;;;;;;;;;;;;;-3.43;79.04;101958.34;4930931;27;20835;-76
2021/12/21 05:46:47;;;;;;;;;;;;;;;-3.38;80.03;101955.75;4918083;28;20155;-78
2021/12/21 05:49:13;;;;;;;;;;;;;;;-3.42;80.27;101957.50;4932646;28;19920;-75
2021/12/21 05:51:38;;;;;;;;;;;;;;;-3.37;80.23;101955.72;4935016;28;19919;-75
2021/12/21 05:54:03;;;;;;;;;;;;;;;-3.46;80.58;101955.81;4957015;28;19934;-78
2021/12/21 05:56:29;;;;;;;;;;;;;;;-3.38;80.61;101960.91;4942735;28;20100;-77
2021/12/21 05:58:54;;;;;;;;;;;;;;;-3.30;80.19;101961.66;4962996;28;20702;-75
2021/12/21 06:01:19;;;;;;;;;;;;;;;-3.32;80.06;101959.09;4946558;28;20316;-78
2021/12/21 06:03:44;;;;;;;;;;;;;;;-3.33;79.81;101965.16;4971119;28;19907;-78
2021/12/21 06:06:15;;;;;;;;;;;;;;;-3.32;80.07;101959.09;4935336;28;19904;-79
2021/12/21 06:08:41;;;;;;;;;;;;;;;-3.35;79.01;101961.72;4962358;27;20748;-79
2021/12/21 06:11:07;;;;;;;;;;;;;;;-3.49;79.24;101963.63;4957898;27;19952;-79
2021/12/21 06:26:41;;;;;;;;;;;;;;;-3.52;79.79;101964.50;4956468;27;19949;-78
2021/12/21 06:29:06;;;;;;;;;;;;;;;-3.55;80.07;101959.34;4953780;28;20021;-79
2021/12/21 06:31:32;;;;;;;;;;;;;;;-3.45;79.52;101973.91;4955465;27;20918;-78
2021/12/21 06:33:57;;;;;;;;;;;;;;;-3.50;78.80;101960.19;4938385;27;20288;-78
2021/12/21 06:36:22;;;;;;;;;;;;;;;-3.57;79.46;101963.69;4950082;27;20344;-77
2021/12/21 06:38:48;;;;;;;;;;;;;;;-3.52;79.84;101961.06;4936072;27;20032;-80
2021/12/21 06:41:13;;;;;;;;;;;;;;;-3.63;79.63;101950.81;4962722;27;19908;-78
2021/12/21 06:43:38;;;;;;;;;;;;;;;-3.57;79.64;101961.09;4947341;27;19911;-78
2021/12/21 06:46:16;;;;;;;;;;;;;;;-3.60;80.32;101950.78;4944515;28;19907;-78
2021/12/21 06:51:36;;;;;;;;;;;;;;;-3.66;80.17;101963.78;4934938;28;20012;-78
2021/12/21 06:54:02;;;;;;;;;;;;;;;-3.64;79.99;101964.63;4931175;28;20382;-78
2021/12/21 06:56:27;;;;;;;;;;;;;;;-3.69;80.39;101959.50;4929871;28;19972;-78
2021/12/21 06:58:55;;;;;;;;;;;;;;;-3.75;80.03;101956.09;4950595;28;19911;-79
2021/12/21 07:01:20;;;;;;;;;;;;;;;-3.81;80.33;101965.66;4912534;28;19908;-79
2021/12/21 07:03:45;;;;;;;;;;;;;;;-3.82;80.21;101971.69;4911314;28;20276;-77
2021/12/21 07:06:11;;;;;;;;;;;;;;;-3.83;80.55;101969.13;4928570;28;19904;-79
2021/12/21 07:08:48;;;;;;;;;;;;;;;-3.84;79.71;101970.00;4919777;28;20032;-80
2021/12/21 07:19:37;;;;;;;;;;;;;;;-3.88;80.07;101989.84;4910565;28;19911;-78
2021/12/21 07:22:03;;;;;;;;;;;;;;;-3.87;80.65;101982.94;4908408;28;19956;-78
2021/12/21 07:24:28;;;;;;;;;;;;;;;-3.83;79.92;101990.66;4904139;28;20268;-78
2021/12/21 07:26:53;;;;;;;;;;;;;;;-3.87;79.73;101981.22;4941119;28;20455;-77
2021/12/21 07:29:18;;;;;;;;;;;;;;;-3.85;80.38;101978.59;4922256;28;20433;-79
2021/12/21 07:31:44;;;;;;;;;;;;;;;-3.85;79.76;101986.38;4939392;28;19957;-80
2021/12/21 07:34:09;;;;;;;;;;;;;;;-3.85;80.45;101987.25;4943315;28;19952;-83
2021/12/21 07:36:34;;;;;;;;;;;;;;;-3.80;79.89;101989.78;4915035;28;19922;-81
2021/12/21 07:39:00;;;;;;;;;;;;;;;-3.81;79.70;101988.94;4907549;28;19993;-81
2021/12/21 07:41:25;;;;;;;;;;;;;;;-3.76;79.57;102003.56;4937561;28;20766;-82
2021/12/21 07:43:50;;;;;;;;;;;;;;;-3.76;79.50;101990.63;4914335;28;20180;-81
2021/12/21 07:46:15;;;;;;;;;;;;;;;-3.77;79.91;101994.06;4911255;28;20076;-83
2021/12/21 07:48:41;;;;;;;;;;;;;;;-3.77;80.02;102001.84;4907549;28;20025;-86
2021/12/21 07:51:07;;;;;;;;;;;;;;;-3.75;79.92;101995.78;4952759;27;19965;-83
2021/12/21 07:53:33;;;;;;;;;;;;;;;-3.78;80.02;101998.38;4933423;28;19931;-85
2021/12/21 07:56:02;;;;;;;;;;;;;;;-3.78;80.15;101988.03;4939451;27;19949;-84
2021/12/21 07:58:29;;;;;;;;;;;;;;;-3.84;79.63;101996.69;4934323;28;19904;-81
2021/12/21 08:00:55;;;;;;;;;;;;;;;-3.83;79.93;101995.84;4929310;27;19907;-81
2021/12/21 08:03:20;;;;;;;;;;;;;;;-3.86;79.98;101992.44;4930624;27;19911;-84
2021/12/21 08:05:49;;;;;;;;;;;;;;;-3.81;80.04;101996.69;4942342;27;20006;-81
2021/12/21 08:08:19;;;;;;;;;;;;;;;-3.81;80.17;101991.53;4914651;27;19928;-84
2021/12/21 08:10:56;;;;;;;;;;;;;;;-3.75;80.03;101994.91;4929894;27;20447;-85
2021/12/21 08:13:21;;;;;;;;;;;;;;;-3.66;80.14;102000.00;4921982;27;19981;-84
2021/12/21 08:15:47;;;;;;;;;;;;;;;-3.62;79.67;101997.38;4909913;28;19920;-83
2021/12/21 08:18:12;;;;;;;;;;;;;;;-3.63;80.19;101999.97;4928417;28;20911;-83
2021/12/21 08:20:38;;;;;;;;;;;;;;;-3.54;79.84;101997.31;4910514;28;19900;-83
2021/12/21 08:23:03;;;;;;;;;;;;;;;-3.50;79.51;101996.41;4946235;27;19911;-83
2021/12/21 08:25:28;;;;;;;;;;;;;;;-3.46;79.72;102000.66;4915516;27;19912;-79
2021/12/21 08:27:54;;;;;;;;;;;;;;;-3.37;79.43;102001.44;4931090;28;20170;-83
2021/12/21 08:30:19;;;;;;;;;;;;;;;-3.35;79.44;102005.72;4930191;27;20233;-85
2021/12/21 08:32:44;;;;;;;;;;;;;;;-3.28;79.12;102007.38;4922808;28;20348;-84
2021/12/21 08:35:12;;;;;;;;;;;;;;;-3.26;79.62;102002.16;4934870;27;19908;-83
2021/12/21 08:37:37;;;;;;;;;;;;;;;-3.14;79.76;101999.44;4927199;27;19908;-80
2021/12/21 08:40:04;;;;;;;;;;;;;;;-3.04;79.33;102001.94;4891303;27;20634;-83
2021/12/21 08:42:32;;;;;;;;;;;;;;;-3.03;79.45;102004.50;4932592;27;19912;-83
2021/12/21 08:44:59;;;;;;;;;;;;;;;-2.93;79.45;102002.66;4899311;28;19909;-81
2021/12/21 08:47:28;;;;;;;;;;;;;;;-2.81;79.28;101994.72;4900148;28;19991;-82
2021/12/21 08:49:53;;;;;;;;;;;;;;;-2.70;79.16;102004.09;4914822;28;19908;-84
2021/12/21 08:52:18;;;;;;;;;;;;;;;-2.56;79.39;102012.53;4937262;27;19907;-80
2021/12/21 08:54:43;;;;;;;;;;;;;;;-2.21;78.54;102002.53;4941904;27;20643;-85
2021/12/21 08:57:09;;;;;;;;;;;;;;;-2.00;77.91;102002.19;4934376;27;20409;-85
2021/12/21 08:59:36;;;;;;;;;;;;;;;-1.85;77.17;101995.03;4943024;28;19937;-84
2021/12/21 09:02:02;;;;;;;;;;;;;;;-1.67;77.01;101994.72;4921701;28;19933;-82
2021/12/21 09:04:27;;;;;;;;;;;;;;;-1.64;77.25;101989.47;4930627;27;19912;-84
2021/12/21 09:06:53;;;;;;;;;;;;;;;-1.42;77.12;101994.28;4947913;27;19907;-83
2021/12/21 09:09:19;;;;;;;;;;;;;;;-1.11;76.47;101991.09;4946770;27;20890;-83
2021/12/21 09:11:45;;;;;;;;;;;;;;;-0.84;75.86;101986.22;4959382;27;19926;-83
2021/12/21 09:14:11;;;;;;;;;;;;;;;-0.66;75.04;101995.34;4936887;28;19908;-80
2021/12/21 09:16:36;;;;;;;;;;;;;;;-0.53;74.48;101989.00;4951600;27;20457;-85
2021/12/21 09:19:03;;;;;;;;;;;;;;;-0.41;74.38;101998.25;4932186;28;20294;-84
2021/12/21 09:21:28;;;;;;;;;;;;;;;-0.33;73.37;101987.69;4913762;28;19905;-85
2021/12/21 09:23:53;;;;;;;;;;;;;;;-0.19;73.07;101991.66;4917083;28;19967;-84
2021/12/21 09:26:18;;;;;;;;;;;;;;;0.08;73.20;101999.69;4945662;27;19953;-82
2021/12/21 09:28:44;;;;;;;;;;;;;;;0.39;71.89;101991.09;4933744;28;20492;-82
2021/12/21 09:31:09;;;;;;;;;;;;;;;0.59;71.17;101990.59;4916562;27;20430;-84
2021/12/21 09:33:34;;;;;;;;;;;;;;;1.30;69.35;101998.97;4968853;27;20826;-83
2021/12/21 09:36:00;;;;;;;;;;;;;;;1.77;66.39;101992.34;4946440;27;19904;-83
2021/12/21 09:38:25;;;;;;;;;;;;;;;2.00;65.77;101995.06;4935045;28;19918;-84
2021/12/21 09:40:51;;;;;;;;;;;;;;;2.33;64.18;101994.84;4925352;28;20965;-83
2021/12/21 09:43:17;;;;;;;;;;;;;;;2.87;62.28;101992.91;4923411;28;19915;-84
2021/12/21 09:45:42;;;;;;;;;;;;;;;3.37;60.69;101991.94;4918382;28;20232;-86
2021/12/21 09:48:07;;;;;;;;;;;;;;;3.59;58.91;101994.56;4909565;28;20186;-84
2021/12/21 09:50:33;;;;;;;;;;;;;;;3.59;58.35;101988.47;4909356;28;20082;-84
2021/12/21 09:52:58;;;;;;;;;;;;;;;3.85;58.92;101997.91;4901012;28;19909;-83
2021/12/21 09:55:23;;;;;;;;;;;;;;;3.93;57.94;101995.84;4901708;28;20381;-83
2021/12/21 09:57:49;;;;;;;;;;;;;;;4.27;56.89;101988.31;4933463;28;20001;-84
2021/12/21 10:00:19;;;;;;;;;;;;;;;4.61;55.37;101992.97;4913509;27;19965;-83
2021/12/21 10:02:44;;;;;;;;;;;;;;;5.01;53.82;102003.47;4931503;28;20099;-83
2021/12/21 10:05:13;;;;;;;;;;;;;;;4.98;54.65;101995.72;4935539;27;20348;-83
2021/12/21 10:07:38;;;;;;;;;;;;;;;5.27;53.90;101993.53;4940411;28;20417;-81
2021/12/21 10:10:05;;;;;;;;;;;;;;;5.42;53.44;101990.19;4935927;27;19912;-78
2021/12/21 10:12:32;;;;;;;;;;;;;;;5.45;54.31;101984.78;4932332;28;19900;-85
2021/12/21 10:15:21;;;;;;;;;;;;;;;5.36;53.89;101987.88;4933327;28;20012;-81
2021/12/21 10:17:54;;;;;;;;;;;;;;;5.41;54.03;101993.72;4935761;28;20385;-85
2021/12/21 10:20:31;;;;;;;;;;;;;;;5.50;54.28;101984.59;4936619;27;20208;-86
2021/12/21 10:22:56;;;;;;;;;;;;;;;5.02;53.93;101985.94;4936173;28;20191;-85
2021/12/21 10:25:23;;;;;;;;;;;;;;;4.97;55.21;101991.41;4926692;27;20476;-85
2021/12/21 10:27:49;;;;;;;;;;;;;;;4.79;54.44;101983.47;4928123;28;19935;-82
2021/12/21 10:30:14;;;;;;;;;;;;;;;4.80;54.32;101985.13;4934630;27;20931;-84
2021/12/21 10:32:47;;;;;;;;;;;;;;;4.49;54.52;101983.03;4913957;28;20317;-83
2021/12/21 10:35:13;;;;;;;;;;;;;;;4.44;54.35;101975.38;4921861;27;19904;-83
2021/12/21 10:37:39;;;;;;;;;;;;;;;4.64;54.66;101971.03;4928196;28;19984;-81
2021/12/21 10:40:12;;;;;;;;;;;;;;;4.31;55.10;101974.19;4912028;27;20222;-78
2021/12/21 10:42:44;;;;;;;;;;;;;;;4.25;55.63;101969.22;4935388;28;20142;-82
2021/12/21 10:45:10;;;;;;;;;;;;;;;4.10;55.72;101968.06;4922023;27;20258;-84
2021/12/21 10:47:36;;;;;;;;;;;;;;;3.99;55.63;101963.31;4932761;28;19932;-84
2021/12/21 10:50:01;;;;;;;;;;;;;;;4.04;56.16;101960.50;4933910;28;19904;-83
2021/12/21 10:52:26;;;;;;;;;;;;;;;4.31;56.10;101966.31;4935199;28;20366;-79
2021/12/21 10:54:51;;;;;;;;;;;;;;;4.34;54.81;101963.56;4932755;28;20040;-85
2021/12/21 10:57:17;;;;;;;;;;;;;;;4.38;54.89;101959.06;4929458;27;19999;-76
2021/12/21 10:59:43;;;;;;;;;;;;;;;4.98;54.61;101961.63;4923712;27;19934;-76
2021/12/21 11:02:09;;;;;;;;;;;;;;;5.14;53.13;101965.22;4904897;28;19912;-76
2021/12/21 11:04:35;;;;;;;;;;;;;;;5.12;53.12;101961.00;4918022;28;19912;-77
2021/12/21 11:10:12;;;;;;;;;;;;;;;5.93;52.41;101935.19;4916618;28;20113;-76
2021/12/21 11:12:47;;;;;;;;;;;;;;;6.11;51.31;101929.97;4937900;27;20271;-76
2021/12/21 11:15:13;;;;;;;;;;;;;;;6.39;50.39;101924.16;4916504;27;19907;-75
2021/12/21 11:17:38;;;;;;;;;;;;;;;6.26;50.66;101925.69;4915631;27;19907;-76
2021/12/21 11:20:03;;;;;;;;;;;;;;;6.78;49.54;101922.09;4931086;27;21221;-76
2021/12/21 11:22:29;;;;;;;;;;;;;;;6.78;48.94;101928.22;4910687;27;20456;-75
2021/12/21 11:24:54;;;;;;;;;;;;;;;7.12;48.86;101921.09;4912201;27;19953;-76
2021/12/21 11:27:19;;;;;;;;;;;;;;;7.30;48.61;101921.84;4897425;28;20346;-75
2021/12/21 11:29:45;;;;;;;;;;;;;;;7.44;48.68;101920.22;4906954;28;19918;-75
2021/12/21 11:32:10;;;;;;;;;;;;;;;7.48;47.89;101906.78;4921928;28;19904;-76
2021/12/21 11:34:37;;;;;;;;;;;;;;;7.60;47.92;101907.00;4924392;28;20958;-77
2021/12/21 11:37:20;;;;;;;;;;;;;;;7.77;47.77;101906.03;4921675;27;20152;-76
2021/12/21 11:39:46;;;;;;;;;;;;;;;8.03;46.50;101904.50;4900642;28;20550;-75
2021/12/21 11:42:28;;;;;;;;;;;;;;;8.36;45.48;101904.25;4902991;28;20781;-76
2021/12/21 11:44:58;;;;;;;;;;;;;;;8.63;44.57;101897.38;4922432;27;20013;-77
2021/12/21 11:47:30;;;;;;;;;;;;;;;8.87;44.93;101900.28;4931108;27;19924;-76
2021/12/21 11:49:55;;;;;;;;;;;;;;;9.43;43.11;101887.00;4902917;27;19923;-75
2021/12/21 11:52:21;;;;;;;;;;;;;;;10.12;43.10;101890.31;4922295;27;19920;-76
2021/12/21 11:54:53;;;;;;;;;;;;;;;9.99;41.45;101878.84;4948884;27;20460;-74
2021/12/21 11:57:19;;;;;;;;;;;;;;;10.25;41.09;101877.06;4937657;27;20517;-75
2021/12/21 11:59:48;;;;;;;;;;;;;;;10.37;40.70;101877.19;4931894;27;19907;-75
2021/12/21 12:02:14;;;;;;;;;;;;;;;10.52;40.26;101870.84;4932792;27;20403;-76
2021/12/21 12:04:39;;;;;;;;;;;;;;;10.57;39.80;101866.03;4917567;27;20266;-75
2021/12/21 12:07:15;;;;;;;;;;;;;;;10.48;40.29;101864.06;4918135;27;20390;-75
2021/12/21 12:09:41;;;;;;;;;;;;;;;10.32;41.39;101864.25;4935804;28;20331;-75
2021/12/21 12:12:09;;;;;;;;;;;;;;;10.31;40.83;101858.13;4920082;28;20615;-76
2021/12/21 12:14:36;;;;;;;;;;;;;;;10.19;40.70;101852.84;4952813;27;19911;-79
2021/12/21 12:17:05;;;;;;;;;;;;;;;9.85;41.25;101855.16;4969887;27;20156;-81
2021/12/21 12:19:31;;;;;;;;;;;;;;;9.61;41.55;101858.50;4975865;27;20604;-80
2021/12/21 12:21:56;;;;;;;;;;;;;;;9.55;42.56;101865.06;4943498;28;20376;-82
2021/12/21 12:24:23;;;;;;;;;;;;;;;9.30;43.08;101865.84;4950270;28;20270;-82
2021/12/21 12:26:56;;;;;;;;;;;;;;;9.27;42.78;101861.59;4926809;28;20691;-80
2021/12/21 12:29:21;;;;;;;;;;;;;;;9.17;43.35;101868.44;4932033;28;20756;-79
2021/12/21 12:31:47;;;;;;;;;;;;;;;9.14;43.56;101860.72;4930940;28;20024;-82
2021/12/21 12:34:21;;;;;;;;;;;;;;;8.98;43.26;101860.84;4931374;27;19907;-82
2021/12/21 12:36:50;;;;;;;;;;;;;;;8.50;44.02;101855.97;4949937;28;20008;-83
2021/12/21 12:39:45;;;;;;;;;;;;;;;8.52;44.40;101866.41;4972947;27;20140;-84
2021/12/21 12:42:17;;;;;;;;;;;;;;;8.24;44.78;101858.38;4956575;27;19903;-80
2021/12/21 12:44:42;;;;;;;;;;;;;;;8.41;45.10;101852.06;4945766;27;19956;-79
2021/12/21 12:47:11;;;;;;;;;;;;;;;8.89;44.65;101841.16;4935960;27;20505;-84
2021/12/21 12:49:40;;;;;;;;;;;;;;;9.16;43.30;101844.78;4937438;27;19924;-83
2021/12/21 12:52:06;;;;;;;;;;;;;;;9.48;42.58;101831.22;4927866;27;20350;-82
2021/12/21 12:54:41;;;;;;;;;;;;;;;9.30;42.78;101835.94;4968884;27;20353;-84
2021/12/21 12:57:08;;;;;;;;;;;;;;;9.57;42.86;101842.00;4944904;27;20513;-83
2021/12/21 12:59:34;;;;;;;;;;;;;;;9.67;42.37;101838.75;4932114;28;19908;-85
2021/12/21 13:01:59;;;;;;;;;;;;;;;9.80;42.26;101844.91;4952725;27;20033;-82
2021/12/21 13:04:24;;;;;;;;;;;;;;;10.36;40.84;101849.03;4949914;28;20020;-85
2021/12/21 13:06:52;;;;;;;;;;;;;;;10.92;39.49;101841.47;4947249;27;19945;-83
2021/12/21 13:09:18;;;;;;;;;;;;;;;11.86;38.04;101846.88;4932433;28;19919;-83
2021/12/21 13:11:43;;;;;;;;;;;;;;;12.80;35.69;101842.16;4954307;27;19907;-79
2021/12/21 13:14:09;;;;;;;;;;;;;;;13.09;34.95;101835.47;4943091;27;20432;-84
2021/12/21 13:16:35;;;;;;;;;;;;;;;13.43;34.14;101838.00;4945260;27;20214;-84
2021/12/21 13:19:01;;;;;;;;;;;;;;;13.72;34.41;101833.72;4969644;27;20335;-84
2021/12/21 13:21:28;;;;;;;;;;;;;;;14.53;32.79;101842.78;4954500;27;20423;-83
2021/12/21 13:24:09;;;;;;;;;;;;;;;15.21;31.72;101839.41;4976369;27;19968;-83
2021/12/21 13:26:40;;;;;;;;;;;;;;;15.56;30.79;101838.81;4960898;27;19904;-84
2021/12/21 13:29:06;;;;;;;;;;;;;;;15.68;30.25;101843.97;4973606;27;19932;-84
2021/12/21 13:31:31;;;;;;;;;;;;;;;15.09;30.40;101836.03;4979668;27;19915;-83
2021/12/21 13:33:57;;;;;;;;;;;;;;;15.37;30.83;101836.16;4960544;28;19910;-81
2021/12/21 13:36:29;;;;;;;;;;;;;;;15.95;29.61;101846.75;4963990;27;20267;-81
2021/12/21 13:38:56;;;;;;;;;;;;;;;15.92;29.72;101840.84;4974736;27;20787;-83
2021/12/21 13:41:22;;;;;;;;;;;;;;;15.68;29.88;101846.66;4950066;27;19964;-84
2021/12/21 13:43:54;;;;;;;;;;;;;;;15.09;30.17;101847.53;4973998;27;20906;-79
2021/12/21 13:46:19;;;;;;;;;;;;;;;15.11;30.94;101842.88;4936626;27;20002;-79